sensor_id;sensor_type;location;lat;lon;timestamp;pressure;altitude;pressure_sealevel;temperature;humidity
51081;BME280;37130;55.670;37.596;2023-07-31T00:00:41;98707.81;;;14.74;85.77
51081;BME280;37130;55.670;37.596;2023-07-31T00:03:09;98623.97;;;14.21;86.05
51081;BME280;37130;55.670;37.596;2023-07-31T00:05:37;98710.47;;;14.74;86.59
51081;BME280;37130;55.670;37.596;2023-07-31T00:08:04;98618.28;;;14.15;86.33
51081;BME280;37130;55.670;37.596;2023-07-31T00:10:32;98659.31;;;14.35;86.49
51081;BME280;37130;55.670;37.596;2023-07-31T00:13:00;98646.50;;;14.29;86.46
51081;BME280;37130;55.670;37.596;2023-07-31T00:15:28;98694.59;;;14.61;86.17
51081;BME280;37130;55.670;37.596;2023-07-31T00:17:55;98710.00;;;14.68;86.28
51081;BME280;37130;55.670;37.596;2023-07-31T00:20:24;98704.66;;;14.68;86.47
51081;BME280;37130;55.670;37.596;2023-07-31T00:22:51;98703.94;;;14.66;86.02
51081;BME280;37130;55.670;37.596;2023-07-31T00:25:19;98692.78;;;14.61;86.23
51081;BME280;37130;55.670;37.596;2023-07-31T00:27:47;98702.00;;;14.68;86.27
51081;BME280;37130;55.670;37.596;2023-07-31T00:30:14;98707.22;;;14.70;86.06
51081;BME280;37130;55.670;37.596;2023-07-31T00:32:42;98702.72;;;14.71;85.58
51081;BME280;37130;55.670;37.596;2023-07-31T00:35:09;98712.16;;;14.75;85.47
51081;BME280;37130;55.670;37.596;2023-07-31T00:37:37;98693.03;;;14.69;84.56
51081;BME280;37130;55.670;37.596;2023-07-31T00:40:05;98709.38;;;14.76;85.04
51081;BME280;37130;55.670;37.596;2023-07-31T00:42:32;98697.16;;;14.74;84.72
51081;BME280;37130;55.670;37.596;2023-07-31T00:45:00;98703.94;;;14.78;85.25
51081;BME280;37130;55.670;37.596;2023-07-31T00:47:30;98691.94;;;14.72;85.12
51081;BME280;37130;55.670;37.596;2023-07-31T00:49:57;98697.38;;;14.82;84.92
51081;BME280;37130;55.670;37.596;2023-07-31T00:52:25;98695.56;;;14.82;84.75
51081;BME280;37130;55.670;37.596;2023-07-31T00:54:53;98694.97;;;14.79;84.96
51081;BME280;37130;55.670;37.596;2023-07-31T00:57:20;98704.66;;;14.80;84.96
51081;BME280;37130;55.670;37.596;2023-07-31T00:59:50;98688.81;;;14.78;84.47
51081;BME280;37130;55.670;37.596;2023-07-31T01:02:18;98700.78;;;14.84;84.12
51081;BME280;37130;55.670;37.596;2023-07-31T01:04:46;98696.19;;;14.86;84.27
51081;BME280;37130;55.670;37.596;2023-07-31T01:07:22;98693.78;;;14.83;84.41
51081;BME280;37130;55.670;37.596;2023-07-31T01:10:06;98704.44;;;14.83;84.43
51081;BME280;37130;55.670;37.596;2023-07-31T01:12:37;98698.38;;;14.81;83.91
51081;BME280;37130;55.670;37.596;2023-07-31T01:15:07;98691.94;;;14.83;83.70
51081;BME280;37130;55.670;37.596;2023-07-31T01:17:39;98695.22;;;14.87;83.90
51081;BME280;37130;55.670;37.596;2023-07-31T01:20:27;98698.13;;;14.84;83.55
51081;BME280;37130;55.670;37.596;2023-07-31T01:31:19;98587.91;;;14.17;83.72
51081;BME280;37130;55.670;37.596;2023-07-31T01:33:48;98697.88;;;14.87;83.90
51081;BME280;37130;55.670;37.596;2023-07-31T01:36:16;98659.84;;;14.62;83.80
51081;BME280;37130;55.670;37.596;2023-07-31T01:38:44;98705.88;;;14.87;83.58
51081;BME280;37130;55.670;37.596;2023-07-31T01:41:11;98702.94;;;14.90;83.15
51081;BME280;37130;55.670;37.596;2023-07-31T01:43:39;98684.66;;;14.85;82.80
51081;BME280;37130;55.670;37.596;2023-07-31T01:46:06;98695.78;;;14.90;82.42
51081;BME280;37130;55.670;37.596;2023-07-31T01:48:33;98696.75;;;15.01;82.43
51081;BME280;37130;55.670;37.596;2023-07-31T01:51:04;98697.25;;;15.06;82.11
51081;BME280;37130;55.670;37.596;2023-07-31T01:53:31;98627.75;;;14.75;81.74
51081;BME280;37130;55.670;37.596;2023-07-31T01:56:00;98694.44;;;15.19;81.60
51081;BME280;37130;55.670;37.596;2023-07-31T01:58:31;98699.66;;;15.20;81.87
51081;BME280;37130;55.670;37.596;2023-07-31T02:00:58;98697.47;;;15.25;81.59
51081;BME280;37130;55.670;37.596;2023-07-31T02:03:26;98696.94;;;15.31;81.24
51081;BME280;37130;55.670;37.596;2023-07-31T02:05:54;98696.25;;;15.73;80.76
51081;BME280;37130;55.670;37.596;2023-07-31T02:08:25;98703.31;;;16.68;78.31
51081;BME280;37130;55.670;37.596;2023-07-31T02:10:53;98697.66;;;18.29;73.57
51081;BME280;37130;55.670;37.596;2023-07-31T02:13:21;98670.19;;;19.65;68.99
51081;BME280;37130;55.670;37.596;2023-07-31T02:15:49;98705.69;;;21.17;64.94
51081;BME280;37130;55.670;37.596;2023-07-31T02:18:17;98703.88;;;22.34;61.34
51081;BME280;37130;55.670;37.596;2023-07-31T02:20:49;98702.22;;;23.36;59.04
51081;BME280;37130;55.670;37.596;2023-07-31T02:23:18;98659.66;;;23.93;56.60
51081;BME280;37130;55.670;37.596;2023-07-31T02:25:46;98707.69;;;24.96;54.03
51081;BME280;37130;55.670;37.596;2023-07-31T02:28:14;98717.13;;;25.81;51.83
51081;BME280;37130;55.670;37.596;2023-07-31T02:30:44;98711.59;;;26.60;50.46
51081;BME280;37130;55.670;37.596;2023-07-31T02:33:15;98645.31;;;26.89;49.00
51081;BME280;37130;55.670;37.596;2023-07-31T02:35:43;98717.41;;;26.08;50.03
51081;BME280;37130;55.670;37.596;2023-07-31T02:38:11;98715.31;;;23.87;53.35
51081;BME280;37130;55.670;37.596;2023-07-31T02:40:39;98684.97;;;22.09;56.03
51081;BME280;37130;55.670;37.596;2023-07-31T02:43:08;98700.31;;;21.17;58.69
51081;BME280;37130;55.670;37.596;2023-07-31T02:45:36;98705.28;;;20.44;59.91
51081;BME280;37130;55.670;37.596;2023-07-31T02:48:04;98709.88;;;19.89;60.53
51081;BME280;37130;55.670;37.596;2023-07-31T02:50:32;98709.13;;;19.52;61.34
51081;BME280;37130;55.670;37.596;2023-07-31T02:53:00;98705.66;;;19.23;62.16
51081;BME280;37130;55.670;37.596;2023-07-31T02:55:27;98712.41;;;19.00;63.25
51081;BME280;37130;55.670;37.596;2023-07-31T02:57:55;98708.25;;;18.78;64.23
51081;BME280;37130;55.670;37.596;2023-07-31T03:00:22;98703.66;;;18.60;64.37
51081;BME280;37130;55.670;37.596;2023-07-31T03:02:50;98699.75;;;18.45;65.16
51081;BME280;37130;55.670;37.596;2023-07-31T03:05:18;98709.75;;;18.43;65.04
51081;BME280;37130;55.670;37.596;2023-07-31T03:07:45;98701.91;;;19.80;62.90
51081;BME280;37130;55.670;37.596;2023-07-31T03:10:13;98705.91;;;23.44;54.22
51081;BME280;37130;55.670;37.596;2023-07-31T03:12:41;98711.38;;;26.90;47.36
51081;BME280;37130;55.670;37.596;2023-07-31T03:15:08;98720.66;;;29.57;42.35
51081;BME280;37130;55.670;37.596;2023-07-31T03:17:36;98720.56;;;31.64;38.88
51081;BME280;37130;55.670;37.596;2023-07-31T03:20:04;98720.25;;;33.15;36.72
51081;BME280;37130;55.670;37.596;2023-07-31T03:22:31;98721.84;;;34.71;34.02
51081;BME280;37130;55.670;37.596;2023-07-31T03:25:00;98724.56;;;35.93;32.58
51081;BME280;37130;55.670;37.596;2023-07-31T03:27:31;98729.28;;;36.94;30.74
51081;BME280;37130;55.670;37.596;2023-07-31T03:29:59;98722.81;;;37.79;29.43
51081;BME280;37130;55.670;37.596;2023-07-31T03:32:32;98730.09;;;38.72;28.30
51081;BME280;37130;55.670;37.596;2023-07-31T03:35:00;98737.31;;;39.74;26.89
51081;BME280;37130;55.670;37.596;2023-07-31T03:37:30;98738.41;;;40.62;25.71
51081;BME280;37130;55.670;37.596;2023-07-31T03:39:58;98746.31;;;41.32;24.67
51081;BME280;37130;55.670;37.596;2023-07-31T03:42:25;98707.16;;;41.52;23.87
51081;BME280;37130;55.670;37.596;2023-07-31T03:44:53;98740.31;;;42.11;22.99
51081;BME280;37130;55.670;37.596;2023-07-31T03:47:21;98736.84;;;42.38;22.61
51081;BME280;37130;55.670;37.596;2023-07-31T03:49:49;98695.34;;;42.55;22.41
51081;BME280;37130;55.670;37.596;2023-07-31T03:52:16;98736.09;;;43.25;21.81
51081;BME280;37130;55.670;37.596;2023-07-31T03:54:44;98740.84;;;43.80;21.25
51081;BME280;37130;55.670;37.596;2023-07-31T03:57:11;98746.06;;;44.32;20.60
51081;BME280;37130;55.670;37.596;2023-07-31T03:59:39;98745.94;;;44.59;20.04
51081;BME280;37130;55.670;37.596;2023-07-31T04:02:06;98750.38;;;45.14;19.58
51081;BME280;37130;55.670;37.596;2023-07-31T04:04:33;98717.44;;;45.42;18.62
51081;BME280;37130;55.670;37.596;2023-07-31T04:07:02;98748.69;;;45.93;18.54
51081;BME280;37130;55.670;37.596;2023-07-31T04:09:30;98755.44;;;46.18;18.38
51081;BME280;37130;55.670;37.596;2023-07-31T04:11:57;98756.59;;;46.52;18.07
51081;BME280;37130;55.670;37.596;2023-07-31T04:14:25;98755.91;;;46.81;17.67
51081;BME280;37130;55.670;37.596;2023-07-31T04:16:52;98737.56;;;46.92;16.91
51081;BME280;37130;55.670;37.596;2023-07-31T04:19:20;98772.69;;;47.37;16.92
51081;BME280;37130;55.670;37.596;2023-07-31T04:21:47;98767.41;;;47.44;16.21
51081;BME280;37130;55.670;37.596;2023-07-31T04:24:15;98773.66;;;47.50;15.87
51081;BME280;37130;55.670;37.596;2023-07-31T04:26:43;98748.41;;;47.50;15.77
51081;BME280;37130;55.670;37.596;2023-07-31T04:29:10;98760.59;;;47.83;15.93
51081;BME280;37130;55.670;37.596;2023-07-31T04:31:37;98762.19;;;47.93;16.07
51081;BME280;37130;55.670;37.596;2023-07-31T04:34:06;98766.94;;;48.22;15.39
51081;BME280;37130;55.670;37.596;2023-07-31T04:36:34;98768.28;;;48.70;14.89
51081;BME280;37130;55.670;37.596;2023-07-31T04:39:02;98772.44;;;49.31;14.89
51081;BME280;37130;55.670;37.596;2023-07-31T04:41:30;98777.13;;;49.51;14.76
51081;BME280;37130;55.670;37.596;2023-07-31T04:43:57;98769.84;;;49.75;14.33
51081;BME280;37130;55.670;37.596;2023-07-31T04:46:25;98734.78;;;49.72;14.28
51081;BME280;37130;55.670;37.596;2023-07-31T04:48:53;98749.41;;;49.90;13.88
51081;BME280;37130;55.670;37.596;2023-07-31T04:51:20;98772.44;;;50.33;13.86
51081;BME280;37130;55.670;37.596;2023-07-31T04:53:48;98768.50;;;50.09;13.99
51081;BME280;37130;55.670;37.596;2023-07-31T04:56:16;98774.44;;;50.32;13.92
51081;BME280;37130;55.670;37.596;2023-07-31T04:58:43;98779.88;;;50.81;13.62
51081;BME280;37130;55.670;37.596;2023-07-31T05:01:11;98773.72;;;50.92;13.75
51081;BME280;37130;55.670;37.596;2023-07-31T05:03:39;98783.84;;;51.08;13.58
51081;BME280;37130;55.670;37.596;2023-07-31T05:06:06;98785.84;;;51.08;13.33
51081;BME280;37130;55.670;37.596;2023-07-31T05:08:34;98775.28;;;51.21;13.24
51081;BME280;37130;55.670;37.596;2023-07-31T05:11:02;98772.53;;;51.56;12.71
51081;BME280;37130;55.670;37.596;2023-07-31T05:13:30;98778.69;;;51.78;13.01
51081;BME280;37130;55.670;37.596;2023-07-31T05:15:58;98787.09;;;51.74;13.06
51081;BME280;37130;55.670;37.596;2023-07-31T05:18:29;98770.88;;;52.06;12.65
51081;BME280;37130;55.670;37.596;2023-07-31T05:20:56;98773.09;;;51.97;12.27
51081;BME280;37130;55.670;37.596;2023-07-31T05:23:24;98779.91;;;52.12;12.36
51081;BME280;37130;55.670;37.596;2023-07-31T05:25:51;98770.63;;;52.31;12.17
51081;BME280;37130;55.670;37.596;2023-07-31T05:28:21;98776.31;;;52.34;11.77
51081;BME280;37130;55.670;37.596;2023-07-31T05:30:49;98767.56;;;52.20;12.80
51081;BME280;37130;55.670;37.596;2023-07-31T05:33:17;98769.94;;;52.38;12.64
51081;BME280;37130;55.670;37.596;2023-07-31T05:35:44;98770.09;;;52.45;12.24
51081;BME280;37130;55.670;37.596;2023-07-31T05:38:12;98774.66;;;52.49;11.70
51081;BME280;37130;55.670;37.596;2023-07-31T05:40:39;98776.97;;;52.67;12.18
51081;BME280;37130;55.670;37.596;2023-07-31T05:43:07;98774.53;;;52.85;12.06
51081;BME280;37130;55.670;37.596;2023-07-31T05:45:35;98778.31;;;53.15;11.81
51081;BME280;37130;55.670;37.596;2023-07-31T05:48:04;98780.25;;;53.11;11.29
51081;BME280;37130;55.670;37.596;2023-07-31T05:50:31;98782.59;;;53.52;11.05
51081;BME280;37130;55.670;37.596;2023-07-31T05:52:59;98784.97;;;53.73;11.29
51081;BME280;37130;55.670;37.596;2023-07-31T05:55:26;98780.34;;;53.64;11.01
51081;BME280;37130;55.670;37.596;2023-07-31T05:57:54;98780.06;;;53.70;11.08
51081;BME280;37130;55.670;37.596;2023-07-31T06:00:24;98783.13;;;54.14;10.56
51081;BME280;37130;55.670;37.596;2023-07-31T06:02:52;98789.44;;;54.34;10.83
51081;BME280;37130;55.670;37.596;2023-07-31T06:05:19;98788.13;;;53.98;11.08
51081;BME280;37130;55.670;37.596;2023-07-31T06:07:47;98776.66;;;54.14;10.79
51081;BME280;37130;55.670;37.596;2023-07-31T06:10:15;98780.91;;;54.34;11.16
51081;BME280;37130;55.670;37.596;2023-07-31T06:12:42;98749.00;;;54.37;10.35
51081;BME280;37130;55.670;37.596;2023-07-31T06:15:10;98781.00;;;54.71;10.79
51081;BME280;37130;55.670;37.596;2023-07-31T06:17:38;98789.94;;;54.73;10.35
51081;BME280;37130;55.670;37.596;2023-07-31T06:20:06;98791.81;;;54.62;10.87
51081;BME280;37130;55.670;37.596;2023-07-31T06:22:34;98787.38;;;54.65;11.00
51081;BME280;37130;55.670;37.596;2023-07-31T06:25:02;98784.56;;;54.65;10.46
51081;BME280;37130;55.670;37.596;2023-07-31T06:27:30;98786.03;;;54.89;10.50
51081;BME280;37130;55.670;37.596;2023-07-31T06:29:58;98786.09;;;54.96;10.35
51081;BME280;37130;55.670;37.596;2023-07-31T06:32:25;98779.41;;;55.15;10.17
51081;BME280;37130;55.670;37.596;2023-07-31T06:34:53;98789.53;;;55.12;10.68
51081;BME280;37130;55.670;37.596;2023-07-31T06:37:21;98788.25;;;55.03;9.61
51081;BME280;37130;55.670;37.596;2023-07-31T06:39:48;98788.72;;;55.12;9.79
51081;BME280;37130;55.670;37.596;2023-07-31T06:42:16;98794.41;;;54.75;9.39
51081;BME280;37130;55.670;37.596;2023-07-31T06:44:43;98786.59;;;54.34;9.87
51081;BME280;37130;55.670;37.596;2023-07-31T06:47:11;98762.28;;;54.33;9.82
51081;BME280;37130;55.670;37.596;2023-07-31T06:49:38;98796.44;;;54.74;9.66
51081;BME280;37130;55.670;37.596;2023-07-31T06:52:06;98787.50;;;54.38;9.58
51081;BME280;37130;55.670;37.596;2023-07-31T06:54:33;98765.94;;;53.73;10.21
51081;BME280;37130;55.670;37.596;2023-07-31T06:57:01;98786.88;;;53.95;10.28
51081;BME280;37130;55.670;37.596;2023-07-31T06:59:29;98785.16;;;54.14;10.19
51081;BME280;37130;55.670;37.596;2023-07-31T07:01:56;98788.72;;;54.37;10.07
51081;BME280;37130;55.670;37.596;2023-07-31T07:04:24;98791.94;;;54.69;9.79
51081;BME280;37130;55.670;37.596;2023-07-31T07:06:51;98784.53;;;54.61;10.10
51081;BME280;37130;55.670;37.596;2023-07-31T07:09:19;98790.78;;;54.74;10.26
51081;BME280;37130;55.670;37.596;2023-07-31T07:11:46;98791.16;;;54.72;10.60
51081;BME280;37130;55.670;37.596;2023-07-31T07:14:14;98788.50;;;54.90;10.19
51081;BME280;37130;55.670;37.596;2023-07-31T07:16:41;98783.81;;;55.09;10.24
51081;BME280;37130;55.670;37.596;2023-07-31T07:19:09;98779.81;;;55.13;9.69
51081;BME280;37130;55.670;37.596;2023-07-31T07:21:37;98786.66;;;55.09;10.42
51081;BME280;37130;55.670;37.596;2023-07-31T07:24:05;98778.03;;;54.98;9.73
51081;BME280;37130;55.670;37.596;2023-07-31T07:26:32;98783.59;;;54.87;9.69
51081;BME280;37130;55.670;37.596;2023-07-31T07:29:00;98794.09;;;54.83;9.84
51081;BME280;37130;55.670;37.596;2023-07-31T07:31:29;98792.41;;;54.45;10.39
51081;BME280;37130;55.670;37.596;2023-07-31T07:33:56;98786.00;;;54.18;10.27
51081;BME280;37130;55.670;37.596;2023-07-31T07:36:24;98794.75;;;54.05;9.80
51081;BME280;37130;55.670;37.596;2023-07-31T07:38:52;98785.88;;;54.07;10.41
51081;BME280;37130;55.670;37.596;2023-07-31T07:41:19;98784.41;;;54.20;9.73
51081;BME280;37130;55.670;37.596;2023-07-31T07:43:47;98784.16;;;54.33;10.08
51081;BME280;37130;55.670;37.596;2023-07-31T07:46:14;98790.56;;;54.60;9.31
51081;BME280;37130;55.670;37.596;2023-07-31T07:48:42;98790.84;;;54.17;9.60
51081;BME280;37130;55.670;37.596;2023-07-31T07:51:09;98791.59;;;53.84;9.68
51081;BME280;37130;55.670;37.596;2023-07-31T07:53:37;98783.41;;;53.29;9.38
51081;BME280;37130;55.670;37.596;2023-07-31T07:56:04;98789.03;;;52.41;10.94
51081;BME280;37130;55.670;37.596;2023-07-31T07:58:32;98779.59;;;52.56;9.97
51081;BME280;37130;55.670;37.596;2023-07-31T08:00:59;98782.47;;;52.98;11.00
51081;BME280;37130;55.670;37.596;2023-07-31T08:03:27;98778.16;;;52.85;9.97
51081;BME280;37130;55.670;37.596;2023-07-31T08:06:01;98779.44;;;50.95;11.01
51081;BME280;37130;55.670;37.596;2023-07-31T08:08:29;98773.94;;;50.42;11.31
51081;BME280;37130;55.670;37.596;2023-07-31T08:10:57;98770.84;;;50.07;11.64
51081;BME280;37130;55.670;37.596;2023-07-31T08:13:24;98783.94;;;50.28;11.81
51081;BME280;37130;55.670;37.596;2023-07-31T08:15:51;98782.53;;;50.90;11.79
51081;BME280;37130;55.670;37.596;2023-07-31T08:18:19;98785.50;;;51.25;11.12
51081;BME280;37130;55.670;37.596;2023-07-31T08:20:47;98781.66;;;51.49;10.85
51081;BME280;37130;55.670;37.596;2023-07-31T08:23:14;98780.34;;;50.99;11.12
51081;BME280;37130;55.670;37.596;2023-07-31T08:25:42;98771.09;;;49.04;12.50
51081;BME280;37130;55.670;37.596;2023-07-31T08:28:10;98766.47;;;46.75;13.06
51081;BME280;37130;55.670;37.596;2023-07-31T08:30:37;98766.28;;;44.51;14.24
51081;BME280;37130;55.670;37.596;2023-07-31T08:33:05;98767.91;;;42.07;15.95
51081;BME280;37130;55.670;37.596;2023-07-31T08:35:33;98756.59;;;39.99;17.71
51081;BME280;37130;55.670;37.596;2023-07-31T08:38:00;98753.63;;;38.95;18.58
51081;BME280;37130;55.670;37.596;2023-07-31T08:40:28;98751.09;;;38.06;19.63
51081;BME280;37130;55.670;37.596;2023-07-31T08:42:56;98708.28;;;36.88;19.59
51081;BME280;37130;55.670;37.596;2023-07-31T08:45:26;98749.13;;;35.99;20.83
51081;BME280;37130;55.670;37.596;2023-07-31T08:47:54;98749.16;;;35.33;22.62
51081;BME280;37130;55.670;37.596;2023-07-31T08:50:22;98740.75;;;34.84;22.32
51081;BME280;37130;55.670;37.596;2023-07-31T08:52:51;98751.66;;;34.45;22.94
51081;BME280;37130;55.670;37.596;2023-07-31T08:55:20;98748.22;;;34.21;22.81
51081;BME280;37130;55.670;37.596;2023-07-31T08:57:51;98754.66;;;33.98;23.24
51081;BME280;37130;55.670;37.596;2023-07-31T09:00:23;98751.75;;;33.76;23.67
51081;BME280;37130;55.670;37.596;2023-07-31T09:03:03;98708.13;;;33.39;24.23
51081;BME280;37130;55.670;37.596;2023-07-31T09:05:31;98748.94;;;33.59;24.88
51081;BME280;37130;55.670;37.596;2023-07-31T09:08:00;98749.19;;;33.46;25.31
51081;BME280;37130;55.670;37.596;2023-07-31T09:10:29;98747.94;;;33.25;24.89
51081;BME280;37130;55.670;37.596;2023-07-31T09:12:57;98746.78;;;33.09;25.66
51081;BME280;37130;55.670;37.596;2023-07-31T09:15:25;98745.78;;;32.80;26.24
51081;BME280;37130;55.670;37.596;2023-07-31T09:18:06;98749.47;;;32.62;26.61
51081;BME280;37130;55.670;37.596;2023-07-31T09:20:34;98737.34;;;32.70;26.70
51081;BME280;37130;55.670;37.596;2023-07-31T09:23:08;98736.81;;;32.61;25.25
51081;BME280;37130;55.670;37.596;2023-07-31T09:25:37;98744.94;;;32.56;25.90
51081;BME280;37130;55.670;37.596;2023-07-31T09:28:09;98743.59;;;32.47;26.40
51081;BME280;37130;55.670;37.596;2023-07-31T09:30:48;98743.75;;;32.22;26.82
51081;BME280;37130;55.670;37.596;2023-07-31T09:33:17;98740.28;;;32.15;27.31
51081;BME280;37130;55.670;37.596;2023-07-31T09:35:44;98678.84;;;31.32;27.74
51081;BME280;37130;55.670;37.596;2023-07-31T09:38:13;98734.59;;;31.37;27.18
51081;BME280;37130;55.670;37.596;2023-07-31T09:40:43;98730.91;;;31.43;27.22
51081;BME280;37130;55.670;37.596;2023-07-31T09:43:13;98735.84;;;31.53;26.90
51081;BME280;37130;55.670;37.596;2023-07-31T09:45:42;98735.41;;;31.56;27.01
51081;BME280;37130;55.670;37.596;2023-07-31T09:48:12;98659.72;;;30.95;26.81
51081;BME280;37130;55.670;37.596;2023-07-31T09:50:42;98665.25;;;31.07;27.30
51081;BME280;37130;55.670;37.596;2023-07-31T09:53:10;98743.22;;;31.71;27.19
51081;BME280;37130;55.670;37.596;2023-07-31T09:55:39;98750.03;;;31.80;27.71
51081;BME280;37130;55.670;37.596;2023-07-31T09:58:09;98748.44;;;31.73;28.65
51081;BME280;37130;55.670;37.596;2023-07-31T10:00:37;98736.47;;;31.55;27.08
51081;BME280;37130;55.670;37.596;2023-07-31T10:03:07;98731.38;;;31.22;28.65
51081;BME280;37130;55.670;37.596;2023-07-31T10:05:46;98737.38;;;30.69;28.76
51081;BME280;37130;55.670;37.596;2023-07-31T10:08:18;98650.38;;;29.84;30.31
51081;BME280;37130;55.670;37.596;2023-07-31T10:10:48;98744.44;;;30.26;30.55
51081;BME280;37130;55.670;37.596;2023-07-31T10:13:16;98741.09;;;30.18;29.89
51081;BME280;37130;55.670;37.596;2023-07-31T10:15:45;98731.88;;;30.19;30.20
51081;BME280;37130;55.670;37.596;2023-07-31T10:18:13;98735.81;;;30.29;29.94
51081;BME280;37130;55.670;37.596;2023-07-31T10:20:42;98748.47;;;30.49;30.72
51081;BME280;37130;55.670;37.596;2023-07-31T10:23:10;98744.81;;;30.87;29.95
51081;BME280;37130;55.670;37.596;2023-07-31T10:25:38;98748.53;;;31.11;30.03
51081;BME280;37130;55.670;37.596;2023-07-31T10:28:06;98744.59;;;31.25;29.36
51081;BME280;37130;55.670;37.596;2023-07-31T10:30:34;98726.88;;;31.09;29.57
51081;BME280;37130;55.670;37.596;2023-07-31T10:33:05;98707.81;;;30.77;29.59
51081;BME280;37130;55.670;37.596;2023-07-31T10:35:33;98741.22;;;30.61;29.90
51081;BME280;37130;55.670;37.596;2023-07-31T10:38:18;98744.19;;;29.96;29.77
51081;BME280;37130;55.670;37.596;2023-07-31T10:40:46;98684.53;;;29.16;30.87
51081;BME280;37130;55.670;37.596;2023-07-31T10:43:34;98740.34;;;29.07;30.69
51081;BME280;37130;55.670;37.596;2023-07-31T10:46:06;98751.91;;;28.76;32.17
51081;BME280;37130;55.670;37.596;2023-07-31T10:48:37;98753.41;;;28.58;32.43
51081;BME280;37130;55.670;37.596;2023-07-31T10:51:07;98694.25;;;28.06;32.39
51081;BME280;37130;55.670;37.596;2023-07-31T10:53:36;98752.94;;;28.41;32.67
51081;BME280;37130;55.670;37.596;2023-07-31T10:56:06;98750.44;;;28.47;32.86
51081;BME280;37130;55.670;37.596;2023-07-31T10:58:36;98751.50;;;28.59;32.46
51081;BME280;37130;55.670;37.596;2023-07-31T11:01:05;98748.34;;;28.69;32.58
51081;BME280;37130;55.670;37.596;2023-07-31T11:03:59;98752.13;;;28.68;32.22
51081;BME280;37130;55.670;37.596;2023-07-31T11:06:29;98743.50;;;28.71;33.65
51081;BME280;37130;55.670;37.596;2023-07-31T11:08:57;98747.50;;;28.68;32.60
51081;BME280;37130;55.670;37.596;2023-07-31T11:11:24;98746.88;;;28.59;32.64
51081;BME280;37130;55.670;37.596;2023-07-31T11:13:53;98733.44;;;28.78;32.66
51081;BME280;37130;55.670;37.596;2023-07-31T11:16:22;98733.59;;;29.23;32.57
51081;BME280;37130;55.670;37.596;2023-07-31T11:18:52;98645.00;;;29.32;31.37
51081;BME280;37130;55.670;37.596;2023-07-31T11:21:23;98741.53;;;30.46;31.55
51081;BME280;37130;55.670;37.596;2023-07-31T11:23:53;98741.16;;;30.93;30.92
51081;BME280;37130;55.670;37.596;2023-07-31T11:26:21;98730.84;;;31.13;30.19
51081;BME280;37130;55.670;37.596;2023-07-31T11:28:50;98737.09;;;31.20;30.01
51081;BME280;37130;55.670;37.596;2023-07-31T11:31:18;98742.44;;;30.90;30.08
51081;BME280;37130;55.670;37.596;2023-07-31T11:33:46;98730.44;;;30.41;30.67
51081;BME280;37130;55.670;37.596;2023-07-31T11:36:17;98735.78;;;29.98;31.02
51081;BME280;37130;55.670;37.596;2023-07-31T11:38:45;98651.56;;;29.18;31.75
51081;BME280;37130;55.670;37.596;2023-07-31T11:41:15;98733.84;;;29.60;31.78
51081;BME280;37130;55.670;37.596;2023-07-31T11:43:47;98740.63;;;29.51;31.52
51081;BME280;37130;55.670;37.596;2023-07-31T11:46:15;98740.00;;;29.42;31.60
51081;BME280;37130;55.670;37.596;2023-07-31T11:48:43;98746.16;;;29.31;32.57
51081;BME280;37130;55.670;37.596;2023-07-31T11:51:13;98738.63;;;29.19;32.97
51081;BME280;37130;55.670;37.596;2023-07-31T11:53:47;98738.88;;;29.11;32.71
51081;BME280;37130;55.670;37.596;2023-07-31T11:56:19;98737.53;;;29.34;33.10
51081;BME280;37130;55.670;37.596;2023-07-31T11:58:51;98741.66;;;29.49;32.62
51081;BME280;37130;55.670;37.596;2023-07-31T12:01:21;98739.31;;;29.60;33.29
51081;BME280;37130;55.670;37.596;2023-07-31T12:03:50;98738.69;;;29.64;32.92
51081;BME280;37130;55.670;37.596;2023-07-31T12:06:18;98731.38;;;29.52;33.01
51081;BME280;37130;55.670;37.596;2023-07-31T12:08:48;98746.03;;;29.57;32.73
51081;BME280;37130;55.670;37.596;2023-07-31T12:11:16;98741.56;;;29.76;33.13
51081;BME280;37130;55.670;37.596;2023-07-31T12:13:45;98739.88;;;29.82;32.36
51081;BME280;37130;55.670;37.596;2023-07-31T12:16:12;98732.34;;;29.77;32.73
51081;BME280;37130;55.670;37.596;2023-07-31T12:18:40;98739.09;;;29.68;32.75
51081;BME280;37130;55.670;37.596;2023-07-31T12:21:08;98744.06;;;29.84;33.12
51081;BME280;37130;55.670;37.596;2023-07-31T12:23:38;98754.28;;;29.96;32.89
51081;BME280;37130;55.670;37.596;2023-07-31T12:26:17;98746.25;;;29.69;32.47
51081;BME280;37130;55.670;37.596;2023-07-31T12:28:49;98741.91;;;29.41;32.81
51081;BME280;37130;55.670;37.596;2023-07-31T12:31:22;98740.16;;;28.95;32.85
51081;BME280;37130;55.670;37.596;2023-07-31T12:33:51;98678.78;;;28.33;33.74
51081;BME280;37130;55.670;37.596;2023-07-31T12:36:21;98744.16;;;28.53;33.79
51081;BME280;37130;55.670;37.596;2023-07-31T12:38:50;98700.53;;;28.26;33.52
51081;BME280;37130;55.670;37.596;2023-07-31T12:41:18;98760.09;;;28.56;33.85
51081;BME280;37130;55.670;37.596;2023-07-31T12:43:46;98750.44;;;28.60;33.20
51081;BME280;37130;55.670;37.596;2023-07-31T12:46:14;98755.25;;;28.71;33.61
51081;BME280;37130;55.670;37.596;2023-07-31T12:48:42;98760.50;;;28.93;33.82
51081;BME280;37130;55.670;37.596;2023-07-31T12:51:10;98758.16;;;28.96;33.57
51081;BME280;37130;55.670;37.596;2023-07-31T12:53:37;98757.78;;;28.79;33.67
51081;BME280;37130;55.670;37.596;2023-07-31T12:56:05;98755.06;;;28.59;34.40
51081;BME280;37130;55.670;37.596;2023-07-31T12:58:32;98762.78;;;28.36;34.23
51081;BME280;37130;55.670;37.596;2023-07-31T13:01:00;98756.91;;;28.26;34.58
51081;BME280;37130;55.670;37.596;2023-07-31T13:03:29;98743.28;;;28.12;34.05
51081;BME280;37130;55.670;37.596;2023-07-31T13:05:57;98760.44;;;28.06;34.56